createdAt,value
2018-09-12T00:02:03.621Z,15.50
2018-09-12T00:04:31.876Z,15.50
2018-09-12T00:07:00.155Z,15.50
2018-09-12T00:09:28.452Z,15.40
2018-09-12T00:11:56.709Z,15.40
2018-09-12T00:14:25.006Z,15.40
2018-09-12T00:16:53.285Z,15.40
2018-09-12T00:19:21.536Z,15.40
2018-09-12T00:21:49.838Z,15.30
2018-09-12T00:24:18.095Z,15.30
2018-09-12T00:26:46.393Z,15.30
2018-09-12T00:29:14.684Z,15.30
2018-09-12T00:31:42.973Z,15.30
2018-09-12T00:34:11.218Z,15.20
2018-09-12T00:36:39.500Z,15.20
2018-09-12T00:39:09.580Z,15.20
2018-09-12T00:41:37.829Z,15.20
2018-09-12T00:44:07.453Z,15.10
2018-09-12T00:46:35.714Z,15.10
2018-09-12T00:49:03.989Z,15.10
2018-09-12T00:51:32.260Z,15.10
2018-09-12T00:54:00.524Z,15.10
2018-09-12T00:56:29.062Z,15.10
2018-09-12T00:58:57.372Z,15.00
2018-09-12T01:01:25.634Z,15.00
2018-09-12T01:03:53.877Z,15.00
2018-09-12T01:06:22.162Z,15.00
2018-09-12T01:08:50.563Z,14.90
2018-09-12T01:11:20.503Z,14.90
2018-09-12T01:13:48.748Z,14.90
2018-09-12T01:16:17.024Z,14.90
2018-09-12T01:18:45.299Z,14.90
2018-09-12T01:21:13.580Z,14.90
2018-09-12T01:23:41.852Z,14.80
2018-09-12T01:26:10.120Z,14.80
2018-09-12T01:28:38.377Z,14.80
2018-09-12T01:31:06.792Z,14.80
2018-09-12T01:33:35.293Z,14.70
2018-09-12T01:36:03.585Z,14.80
2018-09-12T01:38:31.864Z,14.70
2018-09-12T01:41:00.152Z,14.70
2018-09-12T01:43:28.460Z,14.70
2018-09-12T01:45:56.724Z,14.70
2018-09-12T01:48:24.980Z,14.70
2018-09-12T01:50:53.264Z,14.70
2018-09-12T01:53:21.556Z,14.70
2018-09-12T01:55:49.820Z,14.70
2018-09-12T01:58:18.108Z,14.70
2018-09-12T02:00:46.373Z,14.70
2018-09-12T02:03:14.661Z,14.70
2018-09-12T02:05:42.956Z,14.70
2018-09-12T02:08:11.216Z,14.70
2018-09-12T02:10:39.472Z,14.70
2018-09-12T02:13:07.748Z,14.70
2018-09-12T02:15:36.033Z,14.70
2018-09-12T02:18:04.292Z,14.70
2018-09-12T02:20:32.604Z,14.70
2018-09-12T02:23:00.866Z,14.70
2018-09-12T02:25:29.106Z,14.60
2018-09-12T02:27:57.371Z,14.60
2018-09-12T02:30:25.876Z,14.60
2018-09-12T02:32:54.183Z,14.50
2018-09-12T02:35:22.477Z,14.50
2018-09-12T02:37:50.775Z,14.50
2018-09-12T02:40:19.021Z,14.50
2018-09-12T02:42:47.301Z,14.40
2018-09-12T02:45:15.550Z,14.40
2018-09-12T02:47:43.825Z,14.40
2018-09-12T02:50:13.081Z,14.40
2018-09-12T02:52:41.370Z,14.40
2018-09-12T02:55:11.098Z,14.30
2018-09-12T02:57:39.425Z,14.30
2018-09-12T03:00:08.249Z,14.30
2018-09-12T03:02:36.518Z,14.20
2018-09-12T03:05:04.903Z,14.20
2018-09-12T03:07:33.188Z,14.20
2018-09-12T03:10:01.430Z,14.20
2018-09-12T03:12:29.736Z,14.20
2018-09-12T03:14:58.004Z,14.20
2018-09-12T03:17:26.262Z,14.20
2018-09-12T03:19:55.203Z,14.20
2018-09-12T03:22:23.473Z,14.10
2018-09-12T03:24:51.743Z,14.10
2018-09-12T03:27:20.030Z,14.10
2018-09-12T03:29:48.322Z,14.00
2018-09-12T03:32:16.584Z,14.00
2018-09-12T03:34:44.861Z,13.90
2018-09-12T03:37:13.162Z,13.90
2018-09-12T03:39:41.416Z,13.90
2018-09-12T03:42:09.777Z,13.90
2018-09-12T03:44:38.041Z,13.90
2018-09-12T03:47:06.326Z,13.80
2018-09-12T03:49:34.568Z,13.80
2018-09-12T03:52:02.905Z,13.90
2018-09-12T03:54:31.177Z,13.90
2018-09-12T03:56:59.425Z,13.90
2018-09-12T03:59:27.706Z,13.90
2018-09-12T04:01:56.528Z,13.90
2018-09-12T04:04:24.810Z,13.90
2018-09-12T04:06:53.066Z,13.90
2018-09-12T04:09:21.319Z,13.90
2018-09-12T04:11:49.598Z,13.90
2018-09-12T04:14:17.879Z,13.90
2018-09-12T04:16:46.240Z,13.80
2018-09-12T04:19:14.458Z,13.80
2018-09-12T04:21:42.744Z,13.70
2018-09-12T04:24:12.376Z,13.70
2018-09-12T04:26:40.613Z,13.70
2018-09-12T04:29:08.902Z,13.60
2018-09-12T04:31:37.168Z,13.60
2018-09-12T04:34:05.441Z,13.60
2018-09-12T04:36:33.708Z,13.60
2018-09-12T04:39:02.019Z,13.50
2018-09-12T04:41:30.579Z,13.50
2018-09-12T04:43:58.856Z,13.40
2018-09-12T04:46:27.116Z,13.40
2018-09-12T04:48:55.384Z,13.40
2018-09-12T04:51:23.676Z,13.30
2018-09-12T04:53:51.931Z,13.30
2018-09-12T04:56:20.252Z,13.30
2018-09-12T04:58:48.528Z,13.30
2018-09-12T05:01:16.812Z,13.20
2018-09-12T05:03:45.158Z,13.20
2018-09-12T05:06:13.421Z,13.20
2018-09-12T05:08:41.814Z,13.20
2018-09-12T05:11:10.082Z,13.10
2018-09-12T05:13:38.370Z,13.10
2018-09-12T05:16:06.721Z,13.10
2018-09-12T05:18:34.964Z,13.00
2018-09-12T05:21:03.260Z,13.10
2018-09-12T05:23:31.540Z,13.00
2018-09-12T05:26:00.000Z,13.10
2018-09-12T05:28:28.276Z,13.10
2018-09-12T05:30:56.528Z,13.10
2018-09-12T05:33:25.288Z,13.10
2018-09-12T05:35:53.584Z,13.10
2018-09-12T05:38:22.722Z,13.10
2018-09-12T05:40:50.993Z,13.20
2018-09-12T05:43:19.284Z,13.20
2018-09-12T05:45:47.595Z,13.30
2018-09-12T05:48:15.848Z,13.30
2018-09-12T05:50:44.148Z,13.40
2018-09-12T05:53:12.422Z,13.40
2018-09-12T05:55:40.687Z,13.40
2018-09-12T05:58:08.973Z,13.50
2018-09-12T06:00:37.253Z,13.50
2018-09-12T06:03:05.520Z,13.60
2018-09-12T06:05:33.793Z,13.60
2018-09-12T06:08:02.084Z,13.60
2018-09-12T06:10:30.373Z,13.70
2018-09-12T06:12:58.645Z,13.80
2018-09-12T06:15:26.932Z,13.80
2018-09-12T06:17:55.199Z,13.80
2018-09-12T06:20:23.460Z,13.90
2018-09-12T06:22:51.722Z,13.90
2018-09-12T06:25:19.992Z,14.00
2018-09-12T06:27:48.264Z,14.00
2018-09-12T06:30:16.561Z,14.10
2018-09-12T06:32:44.818Z,14.10
2018-09-12T06:35:13.125Z,14.20
2018-09-12T06:37:41.393Z,14.20
2018-09-12T06:40:09.656Z,14.30
2018-09-12T06:42:38.336Z,14.30
2018-09-12T06:45:06.636Z,14.40
2018-09-12T06:47:34.908Z,14.50
2018-09-12T06:50:03.230Z,14.60
2018-09-12T06:52:31.529Z,14.60
2018-09-12T06:54:59.796Z,14.70
2018-09-12T06:57:28.104Z,14.80
2018-09-12T06:59:56.406Z,14.90
2018-09-12T07:02:24.662Z,15.00
2018-09-12T07:04:52.921Z,15.10
2018-09-12T07:07:21.201Z,15.30
2018-09-12T07:09:49.508Z,15.40
2018-09-12T07:12:17.792Z,15.60
2018-09-12T07:14:46.056Z,15.70
2018-09-12T07:17:14.324Z,15.80
2018-09-12T07:19:42.674Z,16.00
2018-09-12T07:22:10.952Z,16.10
2018-09-12T07:24:39.250Z,16.30
2018-09-12T07:27:07.508Z,16.40
2018-09-12T07:29:35.768Z,16.60
2018-09-12T07:32:04.052Z,16.70
2018-09-12T07:34:32.313Z,16.80
2018-09-12T07:37:00.579Z,17.00
2018-09-12T07:39:28.874Z,17.10
2018-09-12T07:41:57.132Z,17.20
2018-09-12T07:44:25.412Z,17.30
2018-09-12T07:46:53.663Z,17.50
2018-09-12T07:49:21.942Z,17.60
2018-09-12T07:51:50.228Z,17.70
2018-09-12T07:54:19.151Z,17.80
2018-09-12T07:56:47.441Z,17.90
2018-09-12T07:59:16.339Z,18.00
2018-09-12T08:01:44.652Z,18.10
2018-09-12T08:04:12.914Z,18.20
2018-09-12T08:06:41.203Z,18.30
2018-09-12T08:09:11.251Z,18.40
2018-09-12T08:11:39.599Z,18.50
2018-09-12T08:14:07.879Z,18.60
2018-09-12T08:16:36.169Z,18.70
2018-09-12T08:19:04.536Z,18.90
2018-09-12T08:21:32.743Z,18.90
2018-09-12T08:24:01.011Z,19.00
2018-09-12T08:26:29.299Z,19.10
2018-09-12T08:28:59.081Z,19.20
2018-09-12T08:31:27.791Z,19.30
2018-09-12T08:33:56.051Z,19.40
2018-09-12T08:36:24.374Z,19.50
2018-09-12T08:38:52.608Z,19.60
2018-09-12T08:41:21.685Z,19.70
2018-09-12T08:43:49.948Z,19.80
2018-09-12T08:46:18.232Z,19.90
2018-09-12T08:48:46.529Z,20.10
2018-09-12T08:51:14.821Z,20.10
2018-09-12T08:53:43.149Z,20.20
2018-09-12T08:56:11.407Z,20.20
2018-09-12T08:58:39.705Z,20.30
2018-09-12T09:01:07.967Z,20.50
2018-09-12T09:03:36.249Z,20.50
2018-09-12T09:06:04.583Z,20.70
2018-09-12T09:08:32.882Z,20.70
2018-09-12T09:11:01.324Z,20.80
2018-09-12T09:13:29.731Z,20.90
2018-09-12T09:15:58.011Z,21.10
2018-09-12T09:18:26.273Z,21.10
2018-09-12T09:20:54.551Z,21.20
2018-09-12T09:23:22.833Z,21.30
2018-09-12T09:25:51.116Z,21.40
2018-09-12T09:28:19.425Z,21.50
2018-09-12T09:30:47.693Z,21.70
2018-09-12T09:33:15.974Z,21.70
2018-09-12T09:35:44.372Z,21.80
2018-09-12T09:38:13.307Z,21.90
2018-09-12T09:40:41.583Z,22.00
2018-09-12T09:43:09.884Z,22.00
2018-09-12T09:45:38.142Z,22.00
2018-09-12T09:48:06.509Z,22.10
2018-09-12T09:50:34.677Z,22.20
2018-09-12T09:53:02.961Z,22.30
2018-09-12T09:55:31.247Z,22.50
2018-09-12T09:57:59.535Z,22.60
2018-09-12T10:00:33.262Z,22.70
2018-09-12T10:03:06.937Z,22.90
2018-09-12T10:05:40.668Z,23.00
2018-09-12T10:08:14.405Z,23.10
2018-09-12T10:10:42.670Z,23.10
2018-09-12T10:13:10.923Z,23.20
2018-09-12T10:15:40.311Z,23.30
2018-09-12T10:18:08.599Z,23.40
2018-09-12T10:20:36.873Z,23.50
2018-09-12T10:23:05.211Z,23.60
2018-09-12T10:25:33.833Z,23.60
2018-09-12T10:28:02.095Z,23.70
2018-09-12T10:30:30.379Z,23.80
2018-09-12T10:32:58.675Z,23.90
2018-09-12T10:35:26.955Z,24.00
2018-09-12T10:37:55.556Z,24.00
2018-09-12T10:40:23.877Z,24.10
2018-09-12T10:42:52.142Z,24.10
2018-09-12T10:45:20.426Z,24.30
2018-09-12T10:47:48.697Z,24.40
2018-09-12T10:50:16.959Z,24.40
2018-09-12T10:52:45.268Z,24.40
2018-09-12T10:55:13.570Z,24.50
2018-09-12T10:57:41.865Z,24.50
2018-09-12T11:00:10.180Z,24.60
2018-09-12T11:02:38.465Z,24.70
2018-09-12T11:05:06.797Z,24.70
2018-09-12T11:07:35.093Z,24.70
2018-09-12T11:10:03.440Z,24.80
2018-09-12T11:12:31.743Z,25.00
2018-09-12T11:15:00.045Z,25.10
2018-09-12T11:17:28.313Z,25.10
2018-09-12T11:19:56.612Z,25.10
2018-09-12T11:22:24.961Z,25.20
2018-09-12T11:24:53.259Z,25.20
2018-09-12T11:27:21.848Z,25.20
2018-09-12T11:29:50.113Z,25.30
2018-09-12T11:32:18.368Z,25.40
2018-09-12T11:34:46.625Z,25.40
2018-09-12T11:37:14.922Z,25.40
2018-09-12T11:39:43.241Z,25.50
2018-09-12T11:42:11.519Z,25.50
2018-09-12T11:44:39.789Z,25.60
2018-09-12T11:47:08.051Z,25.50
2018-09-12T11:49:37.167Z,25.50
2018-09-12T11:52:06.622Z,25.50
2018-09-12T11:54:34.909Z,25.70
2018-09-12T11:57:03.248Z,25.60
2018-09-12T11:59:31.542Z,25.60
2018-09-12T12:01:59.817Z,25.50
2018-09-12T12:04:28.089Z,25.50
2018-09-12T12:06:56.389Z,25.50
2018-09-12T12:09:24.671Z,25.60
2018-09-12T12:11:52.959Z,25.60
2018-09-12T12:14:21.219Z,25.60
2018-09-12T12:16:49.532Z,25.70
2018-09-12T12:19:17.816Z,25.70
2018-09-12T12:21:46.088Z,25.80
2018-09-12T12:24:14.372Z,25.80
2018-09-12T12:26:42.672Z,25.80
2018-09-12T12:29:10.988Z,25.80
2018-09-12T12:31:39.256Z,25.90
2018-09-12T12:34:07.530Z,25.90
2018-09-12T12:36:35.794Z,26.00
2018-09-12T12:39:05.776Z,26.00
2018-09-12T12:41:34.046Z,26.10
2018-09-12T12:44:02.319Z,26.10
2018-09-12T12:46:30.649Z,26.10
2018-09-12T12:48:58.928Z,26.20
2018-09-12T12:51:27.204Z,26.30
2018-09-12T12:53:56.180Z,26.40
2018-09-12T12:56:24.539Z,26.30
2018-09-12T12:58:52.893Z,26.30
2018-09-12T13:01:21.600Z,26.30
2018-09-12T13:03:49.975Z,26.40
2018-09-12T13:06:18.248Z,26.30
2018-09-12T13:08:46.570Z,26.40
2018-09-12T13:11:14.848Z,26.40
2018-09-12T13:13:43.162Z,26.40
2018-09-12T13:16:11.967Z,26.40
2018-09-12T13:18:40.247Z,26.40
2018-09-12T13:21:08.546Z,26.40
2018-09-12T13:23:36.832Z,26.50
2018-09-12T13:26:05.114Z,26.50
2018-09-12T13:28:33.374Z,26.60
2018-09-12T13:31:01.652Z,26.50
2018-09-12T13:33:29.913Z,26.60
2018-09-12T13:35:58.172Z,26.60
2018-09-12T13:38:27.329Z,26.70
2018-09-12T13:40:55.598Z,26.70
2018-09-12T13:43:23.865Z,26.80
2018-09-12T13:45:52.221Z,26.80
2018-09-12T13:48:20.531Z,26.80
2018-09-12T13:50:48.818Z,26.80
2018-09-12T13:53:17.165Z,26.80
2018-09-12T13:55:45.461Z,26.70
2018-09-12T13:58:13.744Z,26.70
2018-09-12T14:00:42.063Z,26.80
2018-09-12T14:03:10.387Z,26.70
2018-09-12T14:05:38.655Z,26.80
2018-09-12T14:08:06.988Z,26.70
2018-09-12T14:10:35.272Z,26.70
2018-09-12T14:13:03.574Z,26.70
2018-09-12T14:15:31.851Z,26.60
2018-09-12T14:18:00.920Z,26.60
2018-09-12T14:20:29.208Z,26.60
2018-09-12T14:22:57.556Z,26.60
2018-09-12T14:25:25.922Z,26.60
2018-09-12T14:27:54.216Z,26.70
2018-09-12T14:30:22.490Z,26.70
2018-09-12T14:32:50.893Z,26.70
2018-09-12T14:35:19.190Z,26.70
2018-09-12T14:37:47.528Z,26.70
2018-09-12T14:40:15.838Z,26.70
2018-09-12T14:42:44.154Z,26.70
2018-09-12T14:45:12.521Z,26.70
2018-09-12T14:47:40.810Z,26.70
2018-09-12T14:50:09.116Z,26.70
2018-09-12T14:52:37.396Z,26.60
2018-09-12T14:55:05.698Z,26.60
2018-09-12T14:57:34.051Z,26.60
2018-09-12T15:00:02.308Z,26.60
2018-09-12T15:02:30.616Z,26.50
2018-09-12T15:04:58.979Z,26.60
2018-09-12T15:07:27.197Z,26.60
2018-09-12T15:09:55.476Z,26.70
2018-09-12T15:12:23.792Z,26.70
2018-09-12T15:14:52.080Z,26.70
2018-09-12T15:17:20.372Z,26.70
2018-09-12T15:19:49.241Z,26.70
2018-09-12T15:22:17.547Z,26.70
2018-09-12T15:24:45.841Z,26.70
2018-09-12T15:27:14.130Z,26.70
2018-09-12T15:29:42.399Z,26.70
2018-09-12T15:32:10.666Z,26.70
2018-09-12T15:34:38.959Z,26.70
2018-09-12T15:37:08.179Z,26.70
2018-09-12T15:39:36.430Z,26.70
2018-09-12T15:42:04.734Z,26.60
2018-09-12T15:44:33.020Z,26.60
2018-09-12T15:47:01.789Z,26.60
2018-09-12T15:49:30.143Z,26.60
2018-09-12T15:51:58.469Z,26.60
2018-09-12T15:54:26.786Z,26.60
2018-09-12T15:56:55.081Z,26.60
2018-09-12T15:59:23.378Z,26.60
2018-09-12T16:01:51.652Z,26.50
2018-09-12T16:04:21.596Z,26.50
2018-09-12T16:06:49.953Z,26.50
2018-09-12T16:09:18.250Z,26.50
2018-09-12T16:11:46.566Z,26.50
2018-09-12T16:14:16.131Z,26.50
2018-09-12T16:16:44.471Z,26.40
2018-09-12T16:19:12.706Z,26.40
2018-09-12T16:21:41.000Z,26.40
2018-09-12T16:24:09.284Z,26.40
2018-09-12T16:26:37.558Z,26.40
2018-09-12T16:29:06.183Z,26.40
2018-09-12T16:31:34.498Z,26.40
2018-09-12T16:34:02.768Z,26.40
2018-09-12T16:36:31.112Z,26.30
2018-09-12T16:38:59.396Z,26.30
2018-09-12T16:41:27.666Z,26.30
2018-09-12T16:43:55.960Z,26.20
2018-09-12T16:46:24.250Z,26.20
2018-09-12T16:48:52.573Z,26.10
2018-09-12T16:51:20.923Z,26.00
2018-09-12T16:53:49.229Z,26.00
2018-09-12T16:56:17.638Z,26.00
2018-09-12T16:58:45.868Z,26.00
2018-09-12T17:01:14.198Z,25.80
2018-09-12T17:03:42.513Z,25.70
2018-09-12T17:06:10.805Z,25.70
2018-09-12T17:08:39.075Z,25.60
2018-09-12T17:11:07.434Z,25.50
2018-09-12T17:13:37.397Z,25.50
2018-09-12T17:16:05.686Z,25.50
2018-09-12T17:18:35.025Z,25.40
2018-09-12T17:21:03.385Z,25.40
2018-09-12T17:23:33.161Z,25.30
2018-09-12T17:26:01.826Z,25.20
2018-09-12T17:28:30.480Z,25.10
2018-09-12T17:30:58.847Z,25.00
2018-09-12T17:33:27.281Z,25.00
2018-09-12T17:35:55.740Z,24.90
2018-09-12T17:38:24.685Z,24.80
2018-09-12T17:40:53.420Z,24.80
2018-09-12T17:43:22.225Z,24.70
2018-09-12T17:45:50.817Z,24.60
2018-09-12T17:48:19.223Z,24.50
2018-09-12T17:50:47.901Z,24.40
2018-09-12T17:53:16.316Z,24.40
2018-09-12T17:55:44.681Z,24.30
2018-09-12T17:58:12.915Z,24.20
2018-09-12T18:00:41.434Z,24.10
2018-09-12T18:03:09.784Z,24.00
2018-09-12T18:05:38.138Z,23.90
2018-09-12T18:08:06.510Z,23.80
2018-09-12T18:10:35.244Z,23.80
2018-09-12T18:13:03.542Z,23.70
2018-09-12T18:15:31.821Z,23.70
2018-09-12T18:18:00.160Z,23.60
2018-09-12T18:20:29.901Z,23.60
2018-09-12T18:22:58.283Z,23.50
2018-09-12T18:25:26.792Z,23.50
2018-09-12T18:27:56.944Z,23.40
2018-09-12T18:30:25.360Z,23.40
2018-09-12T18:32:53.974Z,23.40
2018-09-12T18:35:22.355Z,23.30
2018-09-12T18:37:50.739Z,23.20
2018-09-12T18:40:19.094Z,23.20
2018-09-12T18:42:47.586Z,23.10
2018-09-12T18:45:16.273Z,23.10
2018-09-12T18:47:44.761Z,23.00
2018-09-12T18:50:13.361Z,22.90
2018-09-12T18:52:42.044Z,22.80
2018-09-12T18:55:10.457Z,22.80
2018-09-12T18:57:38.816Z,22.70
2018-09-12T19:00:07.259Z,22.60
2018-09-12T19:02:35.665Z,22.40
2018-09-12T19:05:04.095Z,22.30
2018-09-12T19:07:32.521Z,22.30
2018-09-12T19:10:00.964Z,22.20
2018-09-12T19:12:29.449Z,22.20
2018-09-12T19:14:57.917Z,22.10
2018-09-12T19:17:26.946Z,22.00
2018-09-12T19:19:55.499Z,22.00
2018-09-12T19:22:23.940Z,22.00
2018-09-12T19:24:52.367Z,21.90
2018-09-12T19:27:20.776Z,21.90
2018-09-12T19:29:49.142Z,21.80
2018-09-12T19:32:18.200Z,21.70
2018-09-12T19:34:46.589Z,21.60
2018-09-12T19:37:14.985Z,21.50
2018-09-12T19:39:43.403Z,21.40
2018-09-12T19:42:11.808Z,21.40
2018-09-12T19:44:40.180Z,21.30
2018-09-12T19:47:08.613Z,21.30
2018-09-12T19:49:36.991Z,21.30
2018-09-12T19:52:06.067Z,21.30
2018-09-12T19:54:34.455Z,21.40
2018-09-12T19:57:02.865Z,21.30
2018-09-12T19:59:31.300Z,21.30
2018-09-12T20:01:59.987Z,21.30
2018-09-12T20:04:28.549Z,21.20
2018-09-12T20:06:57.175Z,21.10
2018-09-12T20:09:26.401Z,21.00
2018-09-12T20:11:54.858Z,20.90
2018-09-12T20:14:23.407Z,20.90
2018-09-12T20:16:51.660Z,20.80
2018-09-12T20:19:20.051Z,20.70
2018-09-12T20:21:48.413Z,20.70
2018-09-12T20:24:16.773Z,20.60
2018-09-12T20:26:45.078Z,20.50
2018-09-12T20:29:13.648Z,20.50
2018-09-12T20:31:41.952Z,20.40
2018-09-12T20:34:10.988Z,20.30
2018-09-12T20:36:39.974Z,20.30
2018-09-12T20:39:10.014Z,20.20
2018-09-12T20:41:38.449Z,20.10
2018-09-12T20:44:07.073Z,20.10
2018-09-12T20:46:35.386Z,20.00
2018-09-12T20:49:04.049Z,20.00
2018-09-12T20:51:32.367Z,19.90
2018-09-12T20:54:00.684Z,19.80
2018-09-12T20:56:29.020Z,19.80
2018-09-12T20:58:57.420Z,19.80
2018-09-12T21:01:25.753Z,19.70
2018-09-12T21:03:54.133Z,19.70
2018-09-12T21:06:22.411Z,19.70
2018-09-12T21:08:50.713Z,19.70
2018-09-12T21:11:19.011Z,19.70
2018-09-12T21:13:47.314Z,19.60
2018-09-12T21:16:15.630Z,19.60
2018-09-12T21:18:44.563Z,19.50
2018-09-12T21:21:12.825Z,19.50
2018-09-12T21:23:41.108Z,19.50
2018-09-12T21:26:09.427Z,19.40
2018-09-12T21:28:37.707Z,19.40
2018-09-12T21:31:05.992Z,19.30
2018-09-12T21:33:35.292Z,19.20
2018-09-12T21:36:03.615Z,19.20
2018-09-12T21:38:31.909Z,19.10
2018-09-12T21:41:00.269Z,19.10
2018-09-12T21:43:29.639Z,19.10
2018-09-12T21:45:57.901Z,19.00
2018-09-12T21:48:26.182Z,19.00
2018-09-12T21:50:54.457Z,18.90
2018-09-12T21:53:22.741Z,18.90
2018-09-12T21:55:51.024Z,18.90
2018-09-12T21:58:19.333Z,18.80
2018-09-12T22:00:47.672Z,18.80
2018-09-12T22:03:15.936Z,18.70
2018-09-12T22:05:44.465Z,18.70
2018-09-12T22:08:12.799Z,18.70
2018-09-12T22:10:41.084Z,18.60
2018-09-12T22:13:09.384Z,18.60
2018-09-12T22:15:37.679Z,18.60
2018-09-12T22:18:05.947Z,18.50
2018-09-12T22:20:34.232Z,18.50
2018-09-12T22:23:02.516Z,18.50
2018-09-12T22:25:30.802Z,18.40
2018-09-12T22:27:59.300Z,18.40
2018-09-12T22:30:27.618Z,18.40
2018-09-12T22:32:56.142Z,18.30
2018-09-12T22:35:24.414Z,18.30
2018-09-12T22:37:52.843Z,18.30
2018-09-12T22:40:21.135Z,18.20
2018-09-12T22:42:49.413Z,18.20
2018-09-12T22:45:17.712Z,18.10
2018-09-12T22:47:45.991Z,18.00
2018-09-12T22:50:14.279Z,18.00
2018-09-12T22:52:42.564Z,17.90
2018-09-12T22:55:10.878Z,17.90
2018-09-12T22:57:39.162Z,17.90
2018-09-12T23:00:07.979Z,17.80
2018-09-12T23:02:36.268Z,17.80
2018-09-12T23:05:04.598Z,17.80
2018-09-12T23:07:32.881Z,17.80
2018-09-12T23:10:01.156Z,17.70
2018-09-12T23:12:29.421Z,17.70
2018-09-12T23:14:57.728Z,17.70
2018-09-12T23:17:25.994Z,17.60
2018-09-12T23:19:54.348Z,17.60
2018-09-12T23:22:22.620Z,17.60
2018-09-12T23:24:50.900Z,17.50
2018-09-12T23:27:19.194Z,17.50
2018-09-12T23:29:47.462Z,17.50
2018-09-12T23:32:15.744Z,17.50
2018-09-12T23:34:44.028Z,17.40
2018-09-12T23:37:12.293Z,17.40
2018-09-12T23:39:40.568Z,17.40
2018-09-12T23:42:08.866Z,17.30
2018-09-12T23:44:37.144Z,17.30
2018-09-12T23:47:05.422Z,17.20
2018-09-12T23:49:34.220Z,17.10
2018-09-12T23:52:02.505Z,17.10
2018-09-12T23:54:30.794Z,17.00
2018-09-12T23:56:59.090Z,17.00
2018-09-12T23:59:27.434Z,17.00
